createdAt,value
2019-05-05T00:00:21.994Z,0.00
2019-05-05T00:01:22.004Z,0.00
2019-05-05T00:02:21.966Z,0.00
2019-05-05T00:03:21.955Z,0.00
2019-05-05T00:04:24.180Z,0.00
2019-05-05T00:05:21.936Z,0.00
2019-05-05T00:06:21.939Z,0.00
2019-05-05T00:07:21.916Z,0.00
2019-05-05T00:08:21.903Z,0.00
2019-05-05T00:09:21.942Z,0.00
2019-05-05T00:10:21.886Z,0.00
2019-05-05T00:11:21.874Z,0.00
2019-05-05T00:12:21.861Z,0.00
2019-05-05T00:13:21.850Z,0.00
2019-05-05T00:14:21.848Z,0.00
2019-05-05T00:15:21.851Z,0.00
2019-05-05T00:16:21.817Z,0.00
2019-05-05T00:17:21.805Z,0.00
2019-05-05T00:18:21.802Z,0.00
2019-05-05T00:19:30.646Z,0.00
2019-05-05T00:20:24.969Z,0.00
2019-05-05T00:21:21.780Z,0.00
2019-05-05T00:22:21.754Z,0.00
2019-05-05T00:23:21.746Z,0.00
2019-05-05T00:24:21.741Z,0.00
2019-05-05T00:25:21.721Z,0.00
2019-05-05T00:26:21.712Z,0.00
2019-05-05T00:27:21.720Z,0.00
2019-05-05T00:28:21.694Z,0.00
2019-05-05T00:29:21.689Z,0.00
2019-05-05T00:30:21.670Z,0.00
2019-05-05T00:31:21.659Z,0.00
2019-05-05T00:32:21.653Z,0.00
2019-05-05T00:33:21.657Z,0.00
2019-05-05T00:34:21.668Z,0.00
2019-05-05T00:35:21.622Z,0.00
2019-05-05T00:36:21.607Z,0.00
2019-05-05T00:37:21.595Z,0.00
2019-05-05T00:38:21.588Z,0.00
2019-05-05T00:39:21.601Z,0.00
2019-05-05T00:40:21.563Z,0.00
2019-05-05T00:41:21.563Z,0.00
2019-05-05T00:42:21.542Z,0.00
2019-05-05T00:43:21.530Z,0.00
2019-05-05T00:44:21.530Z,0.00
2019-05-05T00:45:21.546Z,0.00
2019-05-05T00:46:21.513Z,0.00
2019-05-05T00:47:21.523Z,0.00
2019-05-05T00:48:21.486Z,0.00
2019-05-05T00:49:21.475Z,0.00
2019-05-05T00:50:21.456Z,0.00
2019-05-05T00:51:21.446Z,0.00
2019-05-05T00:52:21.470Z,0.00
2019-05-05T00:53:21.422Z,0.00
2019-05-05T00:54:21.585Z,0.00
2019-05-05T00:55:21.399Z,0.00
2019-05-05T00:56:21.391Z,0.00
2019-05-05T00:57:21.385Z,0.00
2019-05-05T00:58:21.386Z,0.00
2019-05-05T00:59:21.361Z,0.00
2019-05-05T01:00:21.361Z,0.00
2019-05-05T01:01:21.335Z,0.00
2019-05-05T01:02:21.326Z,0.00
2019-05-05T01:03:21.311Z,0.00
2019-05-05T01:04:21.331Z,0.00
2019-05-05T01:05:21.302Z,0.00
2019-05-05T01:06:21.280Z,0.00
2019-05-05T01:07:21.271Z,0.00
2019-05-05T01:08:21.258Z,0.00
2019-05-05T01:09:21.250Z,0.00
2019-05-05T01:10:21.264Z,0.00
2019-05-05T01:11:21.225Z,0.00
2019-05-05T01:12:21.216Z,0.00
2019-05-05T01:13:21.205Z,0.00
2019-05-05T01:14:21.192Z,0.00
2019-05-05T01:15:21.193Z,0.00
2019-05-05T01:16:21.172Z,0.00
2019-05-05T01:17:21.180Z,0.00
2019-05-05T01:18:21.150Z,0.00
2019-05-05T01:19:21.138Z,0.00
2019-05-05T01:20:21.143Z,0.00
2019-05-05T01:21:21.122Z,0.00
2019-05-05T01:22:21.107Z,0.00
2019-05-05T01:23:21.127Z,0.00
2019-05-05T01:24:21.090Z,0.00
2019-05-05T01:25:21.084Z,0.00
2019-05-05T01:26:21.063Z,0.00
2019-05-05T01:27:21.052Z,0.00
2019-05-05T01:28:21.080Z,0.00
2019-05-05T01:29:21.058Z,0.00
2019-05-05T01:30:21.031Z,0.00
2019-05-05T01:31:21.011Z,0.00
2019-05-05T01:32:21.024Z,0.00
2019-05-05T01:33:20.989Z,0.00
2019-05-05T01:34:20.977Z,0.00
2019-05-05T01:35:21.007Z,0.00
2019-05-05T01:36:20.959Z,0.00
2019-05-05T01:37:20.944Z,0.00
2019-05-05T01:38:20.934Z,0.00
2019-05-05T01:39:20.922Z,0.00
2019-05-05T01:40:20.944Z,0.00
2019-05-05T01:41:20.909Z,0.00
2019-05-05T01:42:20.890Z,0.00
2019-05-05T01:43:20.879Z,0.00
2019-05-05T01:44:20.868Z,0.00
2019-05-05T01:45:20.877Z,0.00
2019-05-05T01:46:20.867Z,0.00
2019-05-05T01:47:20.839Z,0.00
2019-05-05T01:48:20.824Z,0.00
2019-05-05T01:49:20.815Z,0.00
2019-05-05T01:50:21.297Z,0.00
2019-05-05T01:51:20.806Z,0.00
2019-05-05T01:52:20.814Z,0.00
2019-05-05T01:53:20.772Z,0.00
2019-05-05T01:54:20.767Z,0.00
2019-05-05T01:55:20.770Z,0.00
2019-05-05T01:56:20.771Z,0.00
2019-05-05T01:57:20.729Z,0.00
2019-05-05T01:58:20.753Z,0.00
2019-05-05T01:59:20.741Z,0.00
2019-05-05T02:00:20.706Z,0.00
2019-05-05T02:01:20.690Z,0.00
2019-05-05T02:02:20.694Z,0.00
2019-05-05T02:03:20.664Z,0.00
2019-05-05T02:04:20.675Z,0.00
2019-05-05T02:05:20.658Z,0.00
2019-05-05T02:06:20.632Z,0.00
2019-05-05T02:07:20.621Z,0.00
2019-05-05T02:08:20.610Z,0.00
2019-05-05T02:09:20.608Z,0.00
2019-05-05T02:10:20.611Z,0.00
2019-05-05T02:11:20.592Z,0.00
2019-05-05T02:12:20.566Z,0.00
2019-05-05T02:13:20.557Z,0.00
2019-05-05T02:14:20.548Z,0.00
2019-05-05T02:15:20.567Z,0.00
2019-05-05T02:16:20.589Z,0.00
2019-05-05T02:17:20.583Z,0.00
2019-05-05T02:18:20.506Z,0.00
2019-05-05T02:19:20.507Z,0.00
2019-05-05T02:20:28.901Z,0.00
2019-05-05T02:21:21.480Z,0.00
2019-05-05T02:22:20.463Z,0.00
2019-05-05T02:23:20.469Z,0.00
2019-05-05T02:24:20.449Z,0.00
2019-05-05T02:25:20.427Z,0.00
2019-05-05T02:26:20.438Z,0.00
2019-05-05T02:27:20.407Z,0.00
2019-05-05T02:28:20.398Z,0.00
2019-05-05T02:29:20.413Z,0.00
2019-05-05T02:30:20.375Z,0.00
2019-05-05T02:31:20.379Z,0.00
2019-05-05T02:32:20.366Z,0.00
2019-05-05T02:33:20.343Z,0.00
2019-05-05T02:34:20.331Z,0.00
2019-05-05T02:35:20.389Z,0.00
2019-05-05T02:36:20.321Z,0.00
2019-05-05T02:37:20.307Z,0.00
2019-05-05T02:38:20.287Z,0.00
2019-05-05T02:39:20.283Z,0.00
2019-05-05T02:40:20.274Z,0.00
2019-05-05T02:41:20.310Z,0.00
2019-05-05T02:42:20.250Z,0.00
2019-05-05T02:43:20.237Z,0.00
2019-05-05T02:44:20.231Z,0.00
2019-05-05T02:45:20.213Z,0.00
2019-05-05T02:46:20.214Z,0.00
2019-05-05T02:47:20.222Z,0.00
2019-05-05T02:48:20.181Z,0.00
2019-05-05T02:49:20.167Z,0.00
2019-05-05T02:50:20.159Z,0.00
2019-05-05T02:51:20.159Z,0.00
2019-05-05T02:52:20.136Z,0.00
2019-05-05T02:53:20.154Z,0.00
2019-05-05T02:54:20.116Z,0.00
2019-05-05T02:55:20.109Z,0.00
2019-05-05T02:56:20.106Z,0.00
2019-05-05T02:57:20.081Z,0.00
2019-05-05T02:58:20.072Z,0.00
2019-05-05T02:59:20.067Z,0.00
2019-05-05T03:00:20.051Z,0.00
2019-05-05T03:01:20.049Z,0.00
2019-05-05T03:02:20.030Z,0.00
2019-05-05T03:03:20.019Z,0.00
2019-05-05T03:04:20.026Z,0.00
2019-05-05T03:05:20.011Z,0.00
2019-05-05T03:06:19.997Z,0.00
2019-05-05T03:07:19.975Z,0.00
2019-05-05T03:08:19.963Z,0.00
2019-05-05T03:09:19.954Z,0.00
2019-05-05T03:10:19.966Z,0.00
2019-05-05T03:11:19.955Z,0.00
2019-05-05T03:12:19.943Z,0.00
2019-05-05T03:13:19.912Z,0.00
2019-05-05T03:14:19.905Z,0.00
2019-05-05T03:15:19.911Z,0.00
2019-05-05T03:16:19.903Z,0.00
2019-05-05T03:17:19.876Z,0.00
2019-05-05T03:18:19.866Z,0.00
2019-05-05T03:19:19.846Z,0.00
2019-05-05T03:20:19.836Z,0.00
2019-05-05T03:21:19.842Z,0.00
2019-05-05T03:22:19.821Z,0.00
2019-05-05T03:23:19.804Z,0.00
2019-05-05T03:24:19.793Z,0.00
2019-05-05T03:25:19.783Z,0.00
2019-05-05T03:26:19.791Z,0.00
2019-05-05T03:27:19.769Z,0.00
2019-05-05T03:28:19.783Z,0.00
2019-05-05T03:29:19.738Z,0.00
2019-05-05T03:30:19.729Z,0.00
2019-05-05T03:31:19.717Z,0.00
2019-05-05T03:32:19.728Z,4.00
2019-05-05T03:33:19.698Z,4.00
2019-05-05T03:34:19.703Z,4.00
2019-05-05T03:35:19.678Z,4.00
2019-05-05T03:36:19.663Z,4.00
2019-05-05T03:37:19.664Z,4.00
2019-05-05T03:38:19.643Z,4.00
2019-05-05T03:39:19.661Z,4.00
2019-05-05T03:40:19.691Z,8.00
2019-05-05T03:41:19.614Z,8.00
2019-05-05T03:42:19.607Z,8.00
2019-05-05T03:43:19.590Z,12.00
2019-05-05T03:44:19.599Z,16.00
2019-05-05T03:45:19.568Z,20.00
2019-05-05T03:46:19.565Z,24.00
2019-05-05T03:47:19.558Z,28.00
2019-05-05T03:48:19.535Z,32.00
2019-05-05T03:49:19.524Z,36.00
2019-05-05T03:50:19.512Z,44.00
2019-05-05T03:51:21.185Z,48.00
2019-05-05T03:52:19.499Z,60.00
2019-05-05T03:53:19.483Z,68.00
2019-05-05T03:54:19.483Z,76.00
2019-05-05T03:55:19.457Z,88.00
2019-05-05T03:56:19.447Z,96.00
2019-05-05T03:57:19.444Z,108.00
2019-05-05T03:58:19.427Z,120.00
2019-05-05T03:59:19.450Z,136.00
2019-05-05T04:00:19.405Z,152.00
2019-05-05T04:01:19.392Z,168.00
2019-05-05T04:02:19.398Z,184.00
2019-05-05T04:03:19.395Z,200.00
2019-05-05T04:04:19.360Z,216.00
2019-05-05T04:05:19.366Z,240.00
2019-05-05T04:06:19.342Z,260.00
2019-05-05T04:07:19.342Z,288.00
2019-05-05T04:08:19.321Z,308.00
2019-05-05T04:09:19.308Z,328.00
2019-05-05T04:10:19.302Z,344.00
2019-05-05T04:11:19.299Z,368.00
2019-05-05T04:12:19.289Z,392.00
2019-05-05T04:13:19.268Z,396.00
2019-05-05T04:14:19.258Z,408.00
2019-05-05T04:15:19.250Z,416.00
2019-05-05T04:16:19.246Z,424.00
2019-05-05T04:17:19.279Z,448.00
2019-05-05T04:18:19.219Z,484.00
2019-05-05T04:19:19.210Z,516.00
2019-05-05T04:20:19.200Z,544.00
2019-05-05T04:21:30.300Z,556.00
2019-05-05T04:22:20.191Z,572.00
2019-05-05T04:23:19.179Z,620.00
2019-05-05T04:24:19.157Z,680.00
2019-05-05T04:25:19.145Z,736.00
2019-05-05T04:26:19.135Z,788.00
2019-05-05T04:27:19.143Z,856.00
2019-05-05T04:28:19.113Z,944.00
2019-05-05T04:29:19.117Z,1020.00
2019-05-05T04:30:19.099Z,1088.00
2019-05-05T04:31:19.084Z,1144.00
2019-05-05T04:32:19.083Z,1192.00
2019-05-05T04:33:19.060Z,1236.00
2019-05-05T04:34:19.058Z,1276.00
2019-05-05T04:35:19.045Z,1276.00
2019-05-05T04:36:19.056Z,1204.00
2019-05-05T04:37:19.200Z,1136.00
2019-05-05T04:38:19.007Z,1176.00
2019-05-05T04:39:18.998Z,1268.00
2019-05-05T04:40:19.022Z,1424.00
2019-05-05T04:41:18.976Z,1592.00
2019-05-05T04:42:18.966Z,1588.00
2019-05-05T04:43:18.965Z,1584.00
2019-05-05T04:44:18.946Z,1540.00
2019-05-05T04:45:18.949Z,1492.00
2019-05-05T04:46:18.927Z,1512.00
2019-05-05T04:47:18.917Z,1596.00
2019-05-05T04:48:18.924Z,1672.00
2019-05-05T04:49:18.898Z,1700.00
2019-05-05T04:50:18.888Z,1684.00
2019-05-05T04:51:18.884Z,1676.00
2019-05-05T04:52:18.869Z,1768.00
2019-05-05T04:53:18.865Z,1940.00
2019-05-05T04:54:18.904Z,1968.00
2019-05-05T04:55:18.838Z,1844.00
2019-05-05T04:56:18.836Z,1772.00
2019-05-05T04:57:18.837Z,1724.00
2019-05-05T04:58:18.814Z,1592.00
2019-05-05T04:59:18.804Z,1356.00
2019-05-05T05:00:18.784Z,1204.00
2019-05-05T05:01:18.770Z,1108.00
2019-05-05T05:02:18.761Z,1100.00
2019-05-05T05:03:18.786Z,1192.00
2019-05-05T05:04:18.743Z,1204.00
2019-05-05T05:05:18.733Z,1252.00
2019-05-05T05:06:18.722Z,1348.00
2019-05-05T05:07:18.724Z,1316.00
2019-05-05T05:08:19.061Z,1252.00
2019-05-05T05:09:18.721Z,1396.00
2019-05-05T05:10:18.745Z,1616.00
2019-05-05T05:11:18.670Z,1580.00
2019-05-05T05:12:18.663Z,1688.00
2019-05-05T05:13:18.657Z,1940.00
2019-05-05T05:14:18.638Z,1916.00
2019-05-05T05:15:18.629Z,1748.00
2019-05-05T05:16:18.653Z,1664.00
2019-05-05T05:17:19.801Z,1520.00
2019-05-05T05:18:18.608Z,1360.00
2019-05-05T05:19:18.603Z,1248.00
2019-05-05T05:20:18.597Z,1276.00
2019-05-05T05:21:18.567Z,1300.00
2019-05-05T05:22:18.597Z,1352.00
2019-05-05T05:23:18.556Z,1484.00
2019-05-05T05:24:18.536Z,1536.00
2019-05-05T05:25:18.530Z,1584.00
2019-05-05T05:26:18.517Z,1724.00
2019-05-05T05:27:18.520Z,1884.00
2019-05-05T05:28:18.551Z,2204.00
2019-05-05T05:29:18.503Z,2304.00
2019-05-05T05:30:18.475Z,2296.00
2019-05-05T05:31:18.464Z,2284.00
2019-05-05T05:32:18.463Z,2448.00
2019-05-05T05:33:18.442Z,2668.00
2019-05-05T05:34:18.475Z,2936.00
2019-05-05T05:35:18.417Z,3332.00
2019-05-05T05:36:18.407Z,3576.00
2019-05-05T05:37:18.399Z,3576.00
2019-05-05T05:38:18.393Z,3516.00
2019-05-05T05:39:18.386Z,3484.00
2019-05-05T05:40:18.413Z,3476.00
2019-05-05T05:41:18.356Z,3252.00
2019-05-05T05:42:18.345Z,3112.00
2019-05-05T05:43:18.331Z,3224.00
2019-05-05T05:44:18.330Z,3220.00
2019-05-05T05:45:18.313Z,3296.00
2019-05-05T05:46:18.336Z,3564.00
2019-05-05T05:47:18.294Z,3664.00
2019-05-05T05:48:18.277Z,3904.00
2019-05-05T05:49:18.275Z,4224.00
2019-05-05T05:50:18.257Z,4032.00
2019-05-05T05:51:19.453Z,3832.00
2019-05-05T05:52:19.164Z,3972.00
2019-05-05T05:53:18.223Z,4220.00
2019-05-05T05:54:18.222Z,4072.00
2019-05-05T05:55:18.206Z,3700.00
2019-05-05T05:56:18.199Z,3488.00
2019-05-05T05:57:18.182Z,3160.00
2019-05-05T05:58:18.224Z,2888.00
2019-05-05T05:59:18.168Z,2768.00
2019-05-05T06:00:18.150Z,2836.00
2019-05-05T06:01:18.137Z,3224.00
2019-05-05T06:02:18.185Z,3444.00
2019-05-05T06:03:18.121Z,3444.00
2019-05-05T06:04:18.114Z,3264.00
2019-05-05T06:05:18.121Z,3008.00
2019-05-05T06:06:18.085Z,3488.00
2019-05-05T06:07:18.071Z,4092.00
2019-05-05T06:08:18.061Z,4744.00
2019-05-05T06:09:18.063Z,5348.00
2019-05-05T06:10:24.265Z,5084.00
2019-05-05T06:11:19.067Z,4628.00
2019-05-05T06:12:18.019Z,4692.00
2019-05-05T06:13:18.010Z,4664.00
2019-05-05T06:14:18.094Z,4600.00
2019-05-05T06:15:17.988Z,4636.00
2019-05-05T06:16:17.981Z,5136.00
2019-05-05T06:17:18.068Z,5360.00
2019-05-05T06:18:17.960Z,4484.00
2019-05-05T06:19:17.954Z,3624.00
2019-05-05T06:20:17.986Z,3688.00
2019-05-05T06:21:17.924Z,4236.00
2019-05-05T06:22:28.607Z,4504.00
2019-05-05T06:23:18.928Z,4568.00
2019-05-05T06:24:17.918Z,4768.00
2019-05-05T06:25:17.884Z,5516.00
2019-05-05T06:26:17.879Z,5604.00
2019-05-05T06:27:17.862Z,5128.00
2019-05-05T06:28:17.960Z,4760.00
2019-05-05T06:29:17.847Z,4496.00
2019-05-05T06:30:17.839Z,4584.00
2019-05-05T06:31:17.820Z,3812.00
2019-05-05T06:32:17.810Z,3496.00
2019-05-05T06:33:17.821Z,3588.00
2019-05-05T06:34:17.791Z,3584.00
2019-05-05T06:35:17.846Z,3764.00
2019-05-05T06:36:17.775Z,4464.00
2019-05-05T06:37:17.777Z,4656.00
2019-05-05T06:38:17.757Z,5160.00
2019-05-05T06:39:17.772Z,6448.00
2019-05-05T06:40:17.798Z,7760.00
2019-05-05T06:41:17.799Z,8000.00
2019-05-05T06:42:17.704Z,7356.00
2019-05-05T06:43:17.702Z,6876.00
2019-05-05T06:44:17.689Z,6280.00
2019-05-05T06:45:17.694Z,5780.00
2019-05-05T06:46:17.675Z,6228.00
2019-05-05T06:47:17.696Z,6256.00
2019-05-05T06:48:17.643Z,5852.00
2019-05-05T06:49:17.630Z,5776.00
2019-05-05T06:50:17.630Z,5396.00
2019-05-05T06:51:17.614Z,5656.00
2019-05-05T06:52:17.601Z,6144.00
2019-05-05T06:53:17.611Z,6512.00
2019-05-05T06:54:17.579Z,6756.00
2019-05-05T06:55:17.579Z,7388.00
2019-05-05T06:56:17.556Z,8096.00
2019-05-05T06:57:17.550Z,8904.00
2019-05-05T06:58:17.536Z,9536.00
2019-05-05T06:59:17.551Z,10944.00
2019-05-05T07:00:17.547Z,11612.00
2019-05-05T07:01:17.511Z,11756.00
2019-05-05T07:02:17.498Z,12872.00
2019-05-05T07:03:17.493Z,15116.00
2019-05-05T07:04:17.476Z,15484.00
2019-05-05T07:05:17.540Z,18496.00
2019-05-05T07:06:17.455Z,18816.00
2019-05-05T07:07:17.450Z,18176.00
2019-05-05T07:08:17.437Z,17920.00
2019-05-05T07:09:17.422Z,18688.00
2019-05-05T07:10:17.424Z,19200.00
2019-05-05T07:11:17.427Z,20896.00
2019-05-05T07:12:17.437Z,19392.00
2019-05-05T07:13:17.377Z,20032.00
2019-05-05T07:14:17.368Z,21024.00
2019-05-05T07:15:17.407Z,22304.00
2019-05-05T07:16:17.350Z,36992.00
2019-05-05T07:17:17.363Z,32288.00
2019-05-05T07:18:17.357Z,44256.00
2019-05-05T07:19:17.312Z,38208.00
2019-05-05T07:20:17.350Z,30624.00
2019-05-05T07:21:17.313Z,41984.00
2019-05-05T07:22:17.788Z,40448.00
2019-05-05T07:23:17.271Z,23744.00
2019-05-05T07:24:17.268Z,46080.00
2019-05-05T07:25:17.288Z,43168.00
2019-05-05T07:26:17.247Z,22144.00
2019-05-05T07:27:17.226Z,41952.00
2019-05-05T07:28:17.219Z,43552.00
2019-05-05T07:29:18.152Z,22112.00
2019-05-05T07:30:17.196Z,23936.00
2019-05-05T07:31:17.225Z,28736.00
2019-05-05T07:32:17.172Z,24096.00
2019-05-05T07:33:17.164Z,49056.00
2019-05-05T07:34:17.152Z,20320.00
2019-05-05T07:35:17.154Z,15400.00
2019-05-05T07:36:17.150Z,15336.00
2019-05-05T07:37:17.180Z,16960.00
2019-05-05T07:38:17.109Z,21856.00
2019-05-05T07:39:17.103Z,47008.00
2019-05-05T07:40:17.089Z,17280.00
2019-05-05T07:41:17.088Z,17440.00
2019-05-05T07:42:17.067Z,28000.00
2019-05-05T07:43:17.082Z,16236.00
2019-05-05T07:44:28.308Z,19008.00
2019-05-05T07:45:22.832Z,18432.00
2019-05-05T07:46:18.037Z,15336.00
2019-05-05T07:47:17.014Z,21664.00
2019-05-05T07:48:17.043Z,14184.00
2019-05-05T07:49:17.003Z,18176.00
2019-05-05T07:50:28.564Z,56160.00
2019-05-05T07:51:17.985Z,59744.00
2019-05-05T07:52:17.032Z,25504.00
2019-05-05T07:53:17.994Z,57472.00
2019-05-05T07:54:16.989Z,52512.00
2019-05-05T07:55:16.950Z,40192.00
2019-05-05T07:56:16.935Z,31232.00
2019-05-05T07:57:16.907Z,38272.00
2019-05-05T07:58:16.898Z,41120.00
2019-05-05T07:59:16.884Z,43456.00
2019-05-05T08:00:16.899Z,44000.00
2019-05-05T08:01:16.876Z,46112.00
2019-05-05T08:02:16.872Z,46240.00
2019-05-05T08:03:16.843Z,44160.00
2019-05-05T08:04:16.842Z,43456.00
2019-05-05T08:05:16.823Z,46464.00
2019-05-05T08:06:16.949Z,49056.00
2019-05-05T08:07:16.810Z,29760.00
2019-05-05T08:08:16.798Z,43872.00
2019-05-05T08:09:16.784Z,48320.00
2019-05-05T08:10:16.825Z,18944.00
2019-05-05T08:11:16.811Z,19040.00
2019-05-05T08:12:16.745Z,21984.00
2019-05-05T08:13:16.742Z,21472.00
2019-05-05T08:14:16.725Z,21984.00
2019-05-05T08:15:16.728Z,22880.00
2019-05-05T08:16:16.711Z,24800.00
2019-05-05T08:17:16.712Z,26848.00
2019-05-05T08:18:16.682Z,26816.00
2019-05-05T08:19:16.729Z,31872.00
2019-05-05T08:20:19.339Z,29792.00
2019-05-05T08:21:16.658Z,26784.00
2019-05-05T08:22:16.644Z,27616.00
2019-05-05T08:23:29.081Z,31040.00
2019-05-05T08:24:17.617Z,25888.00
2019-05-05T08:25:16.642Z,27360.00
2019-05-05T08:26:16.604Z,25728.00
2019-05-05T08:27:16.592Z,22464.00
2019-05-05T08:28:16.579Z,21184.00
2019-05-05T08:29:16.561Z,20960.00
2019-05-05T08:30:16.562Z,20288.00
2019-05-05T08:31:16.599Z,22624.00
2019-05-05T08:32:16.544Z,17984.00
2019-05-05T08:33:16.548Z,15560.00
2019-05-05T08:34:16.535Z,17248.00
2019-05-05T08:35:16.498Z,19680.00
2019-05-05T08:36:16.525Z,21536.00
2019-05-05T08:37:16.477Z,22752.00
2019-05-05T08:38:16.487Z,26208.00
2019-05-05T08:39:16.456Z,20064.00
2019-05-05T08:40:16.446Z,16672.00
2019-05-05T08:41:16.439Z,16512.00
2019-05-05T08:42:16.450Z,18400.00
2019-05-05T08:43:16.430Z,19488.00
2019-05-05T08:44:18.138Z,17248.00
2019-05-05T08:45:16.413Z,16288.00
2019-05-05T08:46:16.380Z,17152.00
2019-05-05T08:47:16.385Z,19072.00
2019-05-05T08:48:16.364Z,19904.00
2019-05-05T08:49:16.348Z,21760.00
2019-05-05T08:50:16.344Z,24928.00
2019-05-05T08:51:16.335Z,25760.00
2019-05-05T08:52:16.332Z,24352.00
2019-05-05T08:53:16.309Z,24672.00
2019-05-05T08:54:16.297Z,24672.00
2019-05-05T08:55:16.298Z,22048.00
2019-05-05T08:56:16.275Z,20544.00
2019-05-05T08:57:16.279Z,20800.00
2019-05-05T08:58:16.270Z,23360.00
2019-05-05T08:59:16.263Z,27232.00
2019-05-05T09:00:16.232Z,51232.00
2019-05-05T09:01:16.222Z,56256.00
2019-05-05T09:02:16.219Z,32832.00
2019-05-05T09:03:16.231Z,32192.00
2019-05-05T09:04:16.189Z,35456.00
2019-05-05T09:05:16.178Z,46336.00
2019-05-05T09:06:16.167Z,31584.00
2019-05-05T09:07:16.170Z,29664.00
2019-05-05T09:08:16.147Z,26720.00
2019-05-05T09:09:16.153Z,26048.00
2019-05-05T09:10:16.126Z,23904.00
2019-05-05T09:11:16.124Z,21792.00
2019-05-05T09:12:16.114Z,20192.00
2019-05-05T09:13:16.096Z,17696.00
2019-05-05T09:14:16.084Z,15712.00
2019-05-05T09:15:16.089Z,14428.00
2019-05-05T09:16:16.061Z,15136.00
2019-05-05T09:17:16.067Z,16000.00
2019-05-05T09:18:16.041Z,18240.00
2019-05-05T09:19:16.035Z,22176.00
2019-05-05T09:20:16.018Z,17888.00
2019-05-05T09:21:16.012Z,15968.00
2019-05-05T09:22:16.014Z,16288.00
2019-05-05T09:23:15.985Z,19520.00
2019-05-05T09:24:15.974Z,11756.00
2019-05-05T09:25:15.964Z,10608.00
2019-05-05T09:26:15.952Z,8968.00
2019-05-05T09:27:15.968Z,8296.00
2019-05-05T09:28:15.939Z,8288.00
2019-05-05T09:29:15.923Z,8268.00
2019-05-05T09:30:15.910Z,8264.00
2019-05-05T09:31:15.901Z,7660.00
2019-05-05T09:32:15.899Z,7028.00
2019-05-05T09:33:18.269Z,6544.00
2019-05-05T09:34:15.866Z,6072.00
2019-05-05T09:35:15.859Z,5704.00
2019-05-05T09:36:15.861Z,5332.00
2019-05-05T09:37:15.882Z,5312.00
2019-05-05T09:38:15.823Z,5548.00
2019-05-05T09:39:15.855Z,5812.00
2019-05-05T09:40:15.805Z,6056.00
2019-05-05T09:41:15.792Z,6260.00
2019-05-05T09:42:15.791Z,6136.00
2019-05-05T09:43:15.771Z,6012.00
2019-05-05T09:44:15.781Z,5784.00
2019-05-05T09:45:15.748Z,5736.00
2019-05-05T09:46:15.742Z,5724.00
2019-05-05T09:47:15.793Z,6052.00
2019-05-05T09:48:15.728Z,7200.00
2019-05-05T09:49:15.707Z,7944.00
2019-05-05T09:50:15.696Z,8968.00
2019-05-05T09:51:15.689Z,10304.00
2019-05-05T09:52:15.683Z,12336.00
2019-05-05T09:53:15.696Z,14916.00
2019-05-05T09:54:17.462Z,17856.00
2019-05-05T09:55:15.641Z,19904.00
2019-05-05T09:56:15.630Z,21376.00
2019-05-05T09:57:15.624Z,22624.00
2019-05-05T09:58:15.640Z,23808.00
2019-05-05T09:59:15.606Z,25056.00
2019-05-05T10:00:15.591Z,26720.00
2019-05-05T10:01:15.592Z,27904.00
2019-05-05T10:02:15.567Z,29280.00
2019-05-05T10:03:15.573Z,29984.00
2019-05-05T10:04:15.571Z,29120.00
2019-05-05T10:05:15.566Z,28992.00
2019-05-05T10:06:15.539Z,28608.00
2019-05-05T10:07:15.513Z,29920.00
2019-05-05T10:08:15.513Z,29824.00
2019-05-05T10:09:15.491Z,29376.00
2019-05-05T10:10:15.500Z,29600.00
2019-05-05T10:11:16.625Z,32448.00
2019-05-05T10:12:15.466Z,26048.00
2019-05-05T10:13:15.479Z,21248.00
2019-05-05T10:14:15.439Z,16480.00
2019-05-05T10:15:15.455Z,11756.00
2019-05-05T10:16:15.416Z,8464.00
2019-05-05T10:17:15.438Z,6304.00
2019-05-05T10:18:15.410Z,4848.00
2019-05-05T10:19:15.403Z,3912.00
2019-05-05T10:20:15.379Z,3348.00
2019-05-05T10:21:17.782Z,3148.00
2019-05-05T10:22:15.352Z,3140.00
2019-05-05T10:23:15.441Z,3156.00
2019-05-05T10:24:27.783Z,3144.00
2019-05-05T10:25:16.338Z,3164.00
2019-05-05T10:26:15.310Z,3348.00
2019-05-05T10:27:15.297Z,3732.00
2019-05-05T10:28:15.297Z,4056.00
2019-05-05T10:29:15.345Z,3872.00
2019-05-05T10:30:15.283Z,3832.00
2019-05-05T10:31:15.276Z,3896.00
2019-05-05T10:32:15.251Z,4276.00
2019-05-05T10:33:15.247Z,4768.00
2019-05-05T10:34:15.223Z,5612.00
2019-05-05T10:35:15.261Z,7812.00
2019-05-05T10:36:15.203Z,10328.00
2019-05-05T10:37:15.200Z,12496.00
2019-05-05T10:38:15.208Z,15052.00
2019-05-05T10:39:15.175Z,17920.00
2019-05-05T10:40:15.162Z,20480.00
2019-05-05T10:41:15.162Z,22784.00
2019-05-05T10:42:15.139Z,24896.00
2019-05-05T10:43:15.140Z,26304.00
2019-05-05T10:44:15.122Z,27776.00
2019-05-05T10:45:15.121Z,29280.00
2019-05-05T10:46:15.095Z,30016.00
2019-05-05T10:47:15.090Z,30400.00
2019-05-05T10:48:15.101Z,31264.00
2019-05-05T10:49:15.063Z,31616.00
2019-05-05T10:50:15.054Z,31648.00
2019-05-05T10:51:15.044Z,31552.00
2019-05-05T10:52:15.032Z,31104.00
2019-05-05T10:53:15.063Z,30688.00
2019-05-05T10:54:15.011Z,30368.00
2019-05-05T10:55:14.999Z,30720.00
2019-05-05T10:56:14.990Z,31424.00
2019-05-05T10:57:18.319Z,32800.00
2019-05-05T10:58:14.978Z,33344.00
2019-05-05T10:59:14.985Z,34112.00
2019-05-05T11:00:15.654Z,35008.00
2019-05-05T11:01:14.941Z,36928.00
2019-05-05T11:02:14.923Z,35200.00
2019-05-05T11:03:15.291Z,40192.00
2019-05-05T11:04:14.949Z,80064.00
2019-05-05T11:05:14.936Z,116032.00
2019-05-05T11:06:14.886Z,110240.00
2019-05-05T11:07:14.869Z,39616.00
2019-05-05T11:08:14.862Z,33280.00
2019-05-05T11:09:14.861Z,30432.00
2019-05-05T11:10:14.844Z,28448.00
2019-05-05T11:11:14.832Z,26144.00
2019-05-05T11:12:14.847Z,24064.00
2019-05-05T11:13:14.805Z,21792.00
2019-05-05T11:14:14.815Z,19680.00
2019-05-05T11:15:14.784Z,18496.00
2019-05-05T11:16:14.785Z,18048.00
2019-05-05T11:17:14.760Z,18240.00
2019-05-05T11:18:15.222Z,20800.00
2019-05-05T11:19:14.760Z,33408.00
2019-05-05T11:20:14.728Z,30368.00
2019-05-05T11:21:14.718Z,28320.00
2019-05-05T11:22:14.890Z,32896.00
2019-05-05T11:23:15.221Z,72608.00
2019-05-05T11:24:14.758Z,60736.00
2019-05-05T11:25:14.673Z,35072.00
2019-05-05T11:26:14.664Z,44832.00
2019-05-05T11:27:14.679Z,75648.00
2019-05-05T11:28:14.647Z,117376.00
2019-05-05T11:29:14.641Z,97696.00
2019-05-05T11:30:14.666Z,28992.00
2019-05-05T11:31:14.621Z,24608.00
2019-05-05T11:32:15.275Z,24224.00
2019-05-05T11:33:14.587Z,21216.00
2019-05-05T11:34:14.588Z,20480.00
2019-05-05T11:35:14.568Z,19744.00
2019-05-05T11:36:14.565Z,19168.00
2019-05-05T11:37:14.546Z,18752.00
2019-05-05T11:38:14.550Z,19040.00
2019-05-05T11:39:14.887Z,20320.00
2019-05-05T11:40:14.615Z,21120.00
2019-05-05T11:41:14.633Z,22176.00
2019-05-05T11:42:14.693Z,23200.00
2019-05-05T11:43:14.487Z,23648.00
2019-05-05T11:44:15.175Z,23808.00
2019-05-05T11:45:14.927Z,23840.00
2019-05-05T11:46:14.452Z,24288.00
2019-05-05T11:47:14.469Z,30592.00
2019-05-05T11:48:14.893Z,45536.00
2019-05-05T11:49:14.431Z,66848.00
2019-05-05T11:50:14.406Z,109984.00
2019-05-05T11:51:15.079Z,103040.00
2019-05-05T11:52:14.393Z,105664.00
2019-05-05T11:53:14.662Z,101984.00
2019-05-05T11:54:14.394Z,99552.00
2019-05-05T11:55:14.986Z,97312.00
2019-05-05T11:56:14.617Z,97696.00
2019-05-05T11:57:14.333Z,99200.00
2019-05-05T11:58:14.564Z,105248.00
2019-05-05T11:59:14.576Z,110304.00
2019-05-05T12:00:14.300Z,25376.00
2019-05-05T12:01:14.301Z,112352.00
2019-05-05T12:02:14.281Z,26272.00
2019-05-05T12:03:14.575Z,35424.00
2019-05-05T12:04:14.676Z,109536.00
2019-05-05T12:05:14.246Z,111072.00
2019-05-05T12:06:14.815Z,105216.00
2019-05-05T12:07:14.688Z,23744.00
2019-05-05T12:08:14.756Z,21088.00
2019-05-05T12:09:14.231Z,17248.00
2019-05-05T12:10:14.211Z,12548.00
2019-05-05T12:11:15.069Z,10348.00
2019-05-05T12:12:14.362Z,8828.00
2019-05-05T12:13:14.801Z,7652.00
2019-05-05T12:14:14.403Z,6724.00
2019-05-05T12:15:14.174Z,6040.00
2019-05-05T12:16:14.127Z,5512.00
2019-05-05T12:17:14.120Z,5392.00
2019-05-05T12:18:14.488Z,5700.00
2019-05-05T12:19:14.120Z,6172.00